METAR Data
IDs: Format: Raw Decoded Include TAF

Data at: 0952 UTC 28 Sep 2021

KMIW 280853Z AUTO 09008KT 10SM CLR 16/14 A2990 RMK AO2 SLP118 T01610144 53002